createdAt,value
2023-03-26T00:02:08.419Z,98629.28
2023-03-26T00:04:37.513Z,98634.56
2023-03-26T00:07:06.267Z,98633.41
2023-03-26T00:09:35.193Z,98628.34
2023-03-26T00:12:03.873Z,98624.81
2023-03-26T00:14:33.544Z,98622.97
2023-03-26T00:17:03.217Z,98634.19
2023-03-26T00:19:33.231Z,98633.66
2023-03-26T00:22:04.512Z,98640.50
2023-03-26T00:24:33.618Z,98636.94
2023-03-26T00:27:02.783Z,98638.94
2023-03-26T00:29:34.193Z,98645.66
2023-03-26T00:32:03.476Z,98646.47
2023-03-26T00:34:35.504Z,98643.28
2023-03-26T00:37:04.523Z,98642.19
2023-03-26T00:39:34.658Z,98649.06
2023-03-26T00:42:07.860Z,98651.78
2023-03-26T00:44:37.007Z,98656.03
2023-03-26T00:47:05.964Z,98658.69
2023-03-26T00:49:35.120Z,98659.47
2023-03-26T00:52:04.446Z,98662.13
2023-03-26T00:54:33.410Z,98669.03
2023-03-26T00:57:02.146Z,98670.72
2023-03-26T00:59:31.252Z,98674.16
2023-03-26T01:02:03.404Z,98681.03
2023-03-26T01:04:38.847Z,98685.31
2023-03-26T01:07:23.030Z,98677.41
2023-03-26T01:09:53.362Z,98687.03
2023-03-26T01:12:29.205Z,98682.13
2023-03-26T01:15:02.880Z,98698.31
2023-03-26T01:17:40.449Z,98699.06
2023-03-26T01:20:21.955Z,98705.19
2023-03-26T01:23:00.510Z,98704.38
2023-03-26T01:25:41.723Z,98705.09
2023-03-26T01:28:15.168Z,98708.59
2023-03-26T01:31:00.452Z,98707.53
2023-03-26T01:33:51.070Z,98708.41
2023-03-26T01:36:42.551Z,98713.47
2023-03-26T01:39:59.480Z,98722.28
2023-03-26T01:42:46.662Z,98710.19
2023-03-26T01:45:27.241Z,98717.88
2023-03-26T01:48:01.682Z,98716.97
2023-03-26T01:50:33.289Z,98716.09
2023-03-26T01:53:06.657Z,98714.47
2023-03-26T01:56:08.728Z,98712.31
2023-03-26T01:58:48.386Z,98724.00
2023-03-26T02:01:32.410Z,98717.47
2023-03-26T02:04:15.433Z,98725.88
2023-03-26T02:07:15.276Z,98710.38
2023-03-26T02:09:53.803Z,98714.75
2023-03-26T02:12:26.813Z,98716.25
2023-03-26T02:14:56.800Z,98726.25
2023-03-26T02:17:25.510Z,98738.97
2023-03-26T02:19:55.156Z,98745.84
2023-03-26T02:22:30.760Z,98753.50
2023-03-26T02:25:00.930Z,98754.97
2023-03-26T02:27:30.185Z,98762.13
2023-03-26T02:29:59.039Z,98757.38
2023-03-26T02:32:29.162Z,98762.44
2023-03-26T02:34:58.278Z,98756.19
2023-03-26T02:37:27.071Z,98755.72
2023-03-26T02:40:07.328Z,98756.84
2023-03-26T02:42:36.502Z,98756.94
2023-03-26T02:45:06.701Z,98759.31
2023-03-26T02:47:54.420Z,98764.28
2023-03-26T02:50:41.189Z,98769.19
2023-03-26T02:53:40.307Z,98766.06
2023-03-26T02:56:29.850Z,98773.47
2023-03-26T02:59:11.811Z,98777.56
2023-03-26T03:01:45.126Z,98782.56
2023-03-26T03:04:16.697Z,98778.06
2023-03-26T03:06:46.661Z,98772.81
2023-03-26T03:09:15.447Z,98778.25
2023-03-26T03:11:47.555Z,98781.00
2023-03-26T03:14:16.779Z,98777.91
2023-03-26T03:16:45.609Z,98779.88
2023-03-26T03:19:15.051Z,98781.88
2023-03-26T03:21:44.151Z,98785.53
2023-03-26T03:24:14.654Z,98796.50
2023-03-26T03:26:48.453Z,98805.09
2023-03-26T03:29:33.665Z,98811.59
2023-03-26T03:32:23.607Z,98809.31
2023-03-26T03:34:55.615Z,98814.88
2023-03-26T03:37:25.549Z,98812.19
2023-03-26T03:39:56.713Z,98816.19
2023-03-26T03:42:31.518Z,98827.00
2023-03-26T03:45:04.999Z,98824.19
2023-03-26T03:47:52.136Z,98828.88
2023-03-26T03:50:28.720Z,98824.69
2023-03-26T03:53:16.890Z,98829.25
2023-03-26T03:55:53.924Z,98837.78
2023-03-26T03:58:29.231Z,98835.63
2023-03-26T04:01:05.143Z,98833.59
2023-03-26T04:03:56.208Z,98840.28
2023-03-26T04:06:32.144Z,98847.00
2023-03-26T04:09:01.327Z,98836.31
2023-03-26T04:11:30.408Z,98847.75
2023-03-26T04:14:21.936Z,98837.88
2023-03-26T04:17:03.099Z,98840.31
2023-03-26T04:19:34.017Z,98843.06
2023-03-26T04:22:04.178Z,98838.78
2023-03-26T04:24:41.202Z,98840.91
2023-03-26T04:27:32.589Z,98836.88
2023-03-26T04:30:24.459Z,98842.78
2023-03-26T04:33:07.336Z,98843.09
2023-03-26T04:35:42.605Z,98837.53
2023-03-26T04:38:17.691Z,98841.75
2023-03-26T04:40:50.535Z,98843.91
2023-03-26T04:43:43.135Z,98844.84
2023-03-26T04:46:24.366Z,98835.34
2023-03-26T04:49:04.381Z,98841.78
2023-03-26T04:51:42.876Z,98833.16
2023-03-26T04:54:26.477Z,98822.06
2023-03-26T04:57:22.731Z,98831.81
2023-03-26T05:00:01.614Z,98837.06
2023-03-26T05:02:35.142Z,98833.91
2023-03-26T05:05:04.239Z,98835.09
2023-03-26T05:07:34.445Z,98826.44
2023-03-26T05:10:06.620Z,98829.56
2023-03-26T05:12:38.872Z,98832.03
2023-03-26T05:15:16.890Z,98832.88
2023-03-26T05:18:07.163Z,98836.84
2023-03-26T05:20:44.818Z,98830.44
2023-03-26T05:23:14.458Z,98833.28
2023-03-26T05:26:08.566Z,98840.88
2023-03-26T05:28:38.110Z,98834.00
2023-03-26T05:31:28.071Z,98831.22
2023-03-26T05:34:01.431Z,98830.47
2023-03-26T05:36:31.257Z,98824.09
2023-03-26T05:39:15.067Z,98825.59
2023-03-26T05:42:09.762Z,98821.38
2023-03-26T05:45:01.007Z,98823.97
2023-03-26T05:47:33.494Z,98819.31
2023-03-26T05:50:02.704Z,98817.00
2023-03-26T05:52:35.384Z,98816.69
2023-03-26T05:55:22.919Z,98808.88
2023-03-26T05:58:09.861Z,98809.88
2023-03-26T06:01:17.912Z,98804.00
2023-03-26T06:04:19.065Z,98796.25
2023-03-26T06:07:00.361Z,98797.69
2023-03-26T06:09:30.415Z,98794.75
2023-03-26T06:11:59.155Z,98793.38
2023-03-26T06:14:30.276Z,98789.91
2023-03-26T06:17:15.175Z,98784.88
2023-03-26T06:20:13.820Z,98789.84
2023-03-26T06:22:45.874Z,98779.78
2023-03-26T06:25:35.445Z,98784.94
2023-03-26T06:28:16.949Z,98786.66
2023-03-26T06:30:55.938Z,98782.66
2023-03-26T06:33:54.181Z,98775.81
2023-03-26T06:36:23.056Z,98774.72
2023-03-26T06:38:52.715Z,98775.16
2023-03-26T06:41:22.216Z,98770.41
2023-03-26T06:44:00.863Z,98768.66
2023-03-26T06:46:48.243Z,98769.78
2023-03-26T06:49:46.874Z,98763.56
2023-03-26T06:52:32.532Z,98759.84
2023-03-26T06:55:21.691Z,98754.09
2023-03-26T06:58:08.055Z,98758.34
2023-03-26T07:00:56.063Z,98738.69
2023-03-26T07:03:44.131Z,98742.06
2023-03-26T07:06:31.523Z,98732.59
2023-03-26T07:09:27.290Z,98729.63
2023-03-26T07:12:15.034Z,98731.22
2023-03-26T07:15:04.714Z,98731.13
2023-03-26T07:18:00.542Z,98730.06
2023-03-26T07:20:34.310Z,98723.50
2023-03-26T07:23:03.630Z,98723.97
2023-03-26T07:25:37.836Z,98716.59
2023-03-26T07:28:13.194Z,98710.38
2023-03-26T07:31:15.874Z,98716.16
2023-03-26T07:34:44.597Z,98705.06
2023-03-26T07:38:11.760Z,98696.91
2023-03-26T07:41:11.383Z,98697.53
2023-03-26T07:44:25.841Z,98695.38
2023-03-26T07:47:36.098Z,98683.03
2023-03-26T07:50:37.428Z,98685.38
2023-03-26T07:53:12.974Z,98680.44
2023-03-26T07:56:21.390Z,98677.19
2023-03-26T07:59:37.968Z,98671.88
2023-03-26T08:02:44.570Z,98666.91
2023-03-26T08:05:57.266Z,98664.47
2023-03-26T08:08:39.671Z,98657.94
2023-03-26T08:11:47.972Z,98653.78
2023-03-26T08:14:34.884Z,98652.22
2023-03-26T08:17:31.451Z,98647.00
2023-03-26T08:20:11.911Z,98641.38
2023-03-26T08:22:44.143Z,98631.09
2023-03-26T08:25:50.150Z,98638.06
2023-03-26T08:28:28.737Z,98627.78
2023-03-26T08:30:58.732Z,98623.06
2023-03-26T08:33:28.922Z,98625.53
2023-03-26T08:35:58.337Z,98622.78
2023-03-26T08:38:27.118Z,98616.47
2023-03-26T08:41:15.633Z,98607.81
2023-03-26T08:44:27.292Z,98611.69
2023-03-26T08:47:08.074Z,98600.13
2023-03-26T08:49:36.991Z,98600.88
2023-03-26T08:52:25.421Z,98596.47
2023-03-26T08:55:34.182Z,98581.59
2023-03-26T08:58:24.433Z,98581.25
2023-03-26T09:00:56.420Z,98575.16
2023-03-26T09:03:31.009Z,98569.25
2023-03-26T09:06:09.049Z,98560.97
2023-03-26T09:08:54.331Z,98552.94
2023-03-26T09:11:52.246Z,98548.94
2023-03-26T09:14:46.612Z,98553.41
2023-03-26T09:17:34.255Z,98546.00
2023-03-26T09:20:22.797Z,98540.91
2023-03-26T09:23:03.711Z,98539.78
2023-03-26T09:25:43.733Z,98539.44
2023-03-26T09:28:41.825Z,98536.59
2023-03-26T09:31:49.467Z,98524.09
2023-03-26T09:34:21.165Z,98516.66
2023-03-26T09:37:06.729Z,98511.31
2023-03-26T09:39:47.695Z,98507.44
2023-03-26T09:42:46.083Z,98505.13
2023-03-26T09:45:52.162Z,98503.44
2023-03-26T09:48:45.547Z,98495.25
2023-03-26T09:51:30.855Z,98487.72
2023-03-26T09:54:24.438Z,98486.75
2023-03-26T09:57:19.481Z,98478.09
2023-03-26T10:00:11.013Z,98479.69
2023-03-26T10:03:02.736Z,98469.63
2023-03-26T10:05:42.298Z,98473.53
2023-03-26T10:08:26.018Z,98466.22
2023-03-26T10:11:06.658Z,98466.06
2023-03-26T10:14:14.487Z,98464.34
2023-03-26T10:16:49.296Z,98462.84
2023-03-26T10:19:27.531Z,98460.34
2023-03-26T10:22:25.229Z,98458.50
2023-03-26T10:25:18.367Z,98454.88
2023-03-26T10:28:05.210Z,98448.53
2023-03-26T10:31:01.237Z,98460.03
2023-03-26T10:33:53.173Z,98449.66
2023-03-26T10:37:11.385Z,98454.88
2023-03-26T10:40:11.092Z,98445.19
2023-03-26T10:43:20.676Z,98444.84
2023-03-26T10:46:12.092Z,98435.53
2023-03-26T10:49:01.948Z,98439.19
2023-03-26T10:51:49.532Z,98440.88
2023-03-26T10:54:37.174Z,98434.53
2023-03-26T10:57:23.776Z,98440.03
2023-03-26T10:59:56.689Z,98431.38
2023-03-26T11:02:29.934Z,98440.31
2023-03-26T11:05:23.678Z,98438.16
2023-03-26T11:08:09.531Z,98430.22
2023-03-26T11:10:44.306Z,98438.25
2023-03-26T11:13:40.070Z,98434.09
2023-03-26T11:16:26.835Z,98435.53
2023-03-26T11:19:34.532Z,98428.06
2023-03-26T11:22:22.138Z,98427.84
2023-03-26T11:25:05.139Z,98425.00
2023-03-26T11:27:59.279Z,98422.06
2023-03-26T11:30:34.498Z,98427.28
2023-03-26T11:33:08.911Z,98424.81
2023-03-26T11:35:42.820Z,98419.59
2023-03-26T11:38:38.483Z,98420.59
2023-03-26T11:41:17.283Z,98422.44
2023-03-26T11:44:57.469Z,98422.28
2023-03-26T11:47:41.726Z,98419.66
2023-03-26T11:50:21.786Z,98420.16
2023-03-26T11:52:53.234Z,98417.81
2023-03-26T11:55:24.793Z,98414.66
2023-03-26T11:57:58.388Z,98414.50
2023-03-26T12:00:29.811Z,98419.66
2023-03-26T12:03:00.256Z,98413.97
2023-03-26T12:05:47.986Z,98421.25
2023-03-26T12:08:22.932Z,98407.47
2023-03-26T12:11:08.120Z,98413.72
2023-03-26T12:13:42.686Z,98413.50
2023-03-26T12:16:15.965Z,98413.22
2023-03-26T12:18:46.704Z,98414.31
2023-03-26T12:21:20.709Z,98416.69
2023-03-26T12:24:06.510Z,98415.84
2023-03-26T12:26:47.293Z,98415.13
2023-03-26T12:29:19.679Z,98411.91
2023-03-26T12:32:15.382Z,98416.84
2023-03-26T12:34:44.709Z,98413.44
2023-03-26T12:37:36.816Z,98406.97
2023-03-26T12:40:28.325Z,98409.56
2023-03-26T12:44:54.975Z,98409.63
2023-03-26T12:47:46.130Z,98408.94
2023-03-26T12:48:44.177Z,98413.94
2023-03-26T12:51:48.598Z,98414.63
2023-03-26T12:54:34.150Z,98416.34
2023-03-26T12:57:17.761Z,98411.81
2023-03-26T13:00:10.295Z,98423.03
2023-03-26T13:03:11.557Z,98410.09
2023-03-26T13:05:45.752Z,98415.34
2023-03-26T13:08:29.704Z,98412.75
2023-03-26T13:11:16.902Z,98422.50
2023-03-26T13:14:05.095Z,98426.09
2023-03-26T13:16:42.886Z,98430.06
2023-03-26T13:19:31.943Z,98433.81
2023-03-26T13:22:18.906Z,98430.44
2023-03-26T13:24:51.282Z,98436.03
2023-03-26T13:27:27.432Z,98432.72
2023-03-26T13:29:57.530Z,98433.25
2023-03-26T13:32:47.342Z,98437.47
2023-03-26T13:35:25.260Z,98435.53
2023-03-26T13:38:07.948Z,98436.28
2023-03-26T13:41:01.681Z,98434.81
2023-03-26T13:43:37.799Z,98444.06
2023-03-26T13:46:22.632Z,98446.94
2023-03-26T13:49:07.277Z,98448.63
2023-03-26T13:51:43.294Z,98448.38
2023-03-26T13:54:49.254Z,98451.44
2023-03-26T13:57:44.363Z,98455.97
2023-03-26T14:00:19.352Z,98457.91
2023-03-26T14:02:57.961Z,98463.47
2023-03-26T14:05:40.624Z,98463.59
2023-03-26T14:08:18.136Z,98458.72
2023-03-26T14:10:55.000Z,98461.75
2023-03-26T14:13:46.782Z,98459.47
2023-03-26T14:16:36.773Z,98458.66
2023-03-26T14:19:42.782Z,98460.47
2023-03-26T14:22:34.800Z,98471.13
2023-03-26T14:25:21.054Z,98477.16
2023-03-26T14:28:11.759Z,98470.63
2023-03-26T14:31:14.498Z,98473.16
2023-03-26T14:34:08.383Z,98472.50
2023-03-26T14:37:06.764Z,98465.22
2023-03-26T14:39:49.693Z,98466.47
2023-03-26T14:42:44.561Z,98478.47
2023-03-26T14:45:34.935Z,98481.88
2023-03-26T14:48:38.114Z,98481.28
2023-03-26T14:51:37.245Z,98484.81
2023-03-26T14:54:17.175Z,98485.16
2023-03-26T14:57:10.722Z,98480.91
2023-03-26T15:00:16.434Z,98485.16
2023-03-26T15:03:18.363Z,98491.41
2023-03-26T15:06:05.361Z,98485.53
2023-03-26T15:09:08.022Z,98493.63
2023-03-26T15:11:54.984Z,98496.50
2023-03-26T15:15:00.139Z,98498.81
2023-03-26T15:17:56.190Z,98498.81
2023-03-26T15:20:46.789Z,98504.75
2023-03-26T15:23:44.288Z,98504.81
2023-03-26T15:26:31.883Z,98506.63
2023-03-26T15:29:36.494Z,98502.47
2023-03-26T15:32:31.321Z,98512.09
2023-03-26T15:35:24.590Z,98512.22
2023-03-26T15:38:23.146Z,98514.09
2023-03-26T15:40:58.113Z,98515.44
2023-03-26T15:44:01.593Z,98515.50
2023-03-26T15:46:57.079Z,98514.81
2023-03-26T15:49:28.969Z,98524.19
2023-03-26T15:52:19.800Z,98524.34
2023-03-26T15:55:13.452Z,98529.56
2023-03-26T15:58:15.116Z,98516.84
2023-03-26T16:01:19.789Z,98526.56
2023-03-26T16:04:09.995Z,98529.66
2023-03-26T16:07:20.324Z,98536.31
2023-03-26T16:10:10.361Z,98528.75
2023-03-26T16:12:47.965Z,98532.38
2023-03-26T16:15:29.470Z,98526.47
2023-03-26T16:18:20.214Z,98528.94
2023-03-26T16:20:55.736Z,98530.00
2023-03-26T16:23:34.472Z,98533.53
2023-03-26T16:26:26.002Z,98529.31
2023-03-26T16:28:55.003Z,98534.00
2023-03-26T16:31:39.423Z,98530.41
2023-03-26T16:34:11.480Z,98531.69
2023-03-26T16:36:44.502Z,98528.13
2023-03-26T16:39:22.515Z,98528.19
2023-03-26T16:42:06.028Z,98530.72
2023-03-26T16:44:38.732Z,98527.56
2023-03-26T16:47:33.580Z,98528.19
2023-03-26T16:50:53.742Z,98519.69
2023-03-26T16:54:05.541Z,98518.72
2023-03-26T16:57:13.172Z,98505.84
2023-03-26T17:00:04.598Z,98506.75
2023-03-26T17:03:05.450Z,98503.13
2023-03-26T17:05:53.624Z,98500.06
2023-03-26T17:08:54.226Z,98495.78
2023-03-26T17:11:28.674Z,98492.44
2023-03-26T17:14:32.144Z,98483.78
2023-03-26T17:17:19.525Z,98488.19
2023-03-26T17:20:15.495Z,98478.91
2023-03-26T17:22:44.456Z,98478.22
2023-03-26T17:26:06.924Z,98477.16
2023-03-26T17:29:00.905Z,98485.09
2023-03-26T17:32:05.587Z,98484.25
2023-03-26T17:34:58.246Z,98489.53
2023-03-26T17:37:36.753Z,98483.47
2023-03-26T17:40:14.790Z,98482.06
2023-03-26T17:43:03.403Z,98477.63
2023-03-26T17:45:37.633Z,98479.59
2023-03-26T17:48:22.939Z,98478.81
2023-03-26T17:51:41.326Z,98475.25
2023-03-26T17:54:35.781Z,98477.16
2023-03-26T17:57:21.442Z,98475.53
2023-03-26T17:59:57.072Z,98472.16
2023-03-26T18:03:18.157Z,98467.19
2023-03-26T18:05:48.689Z,98471.72
2023-03-26T18:08:38.400Z,98477.47
2023-03-26T18:11:10.070Z,98477.06
2023-03-26T18:13:38.873Z,98474.66
2023-03-26T18:16:33.600Z,98478.38
2023-03-26T18:19:15.937Z,98476.28
2023-03-26T18:21:46.253Z,98471.19
2023-03-26T18:24:20.401Z,98467.69
2023-03-26T18:27:04.301Z,98474.41
2023-03-26T18:29:37.906Z,98472.88
2023-03-26T18:32:12.844Z,98471.06
2023-03-26T18:34:50.833Z,98474.56
2023-03-26T18:37:39.801Z,98474.00
2023-03-26T18:40:25.486Z,98477.03
2023-03-26T18:42:59.980Z,98476.69
2023-03-26T18:45:34.493Z,98476.28
2023-03-26T18:48:20.200Z,98479.94
2023-03-26T18:51:05.393Z,98485.28
2023-03-26T18:53:49.554Z,98482.63
2023-03-26T18:56:36.944Z,98479.09
2023-03-26T18:59:08.667Z,98485.28
2023-03-26T19:01:39.273Z,98483.66
2023-03-26T19:04:10.063Z,98481.94
2023-03-26T19:06:43.142Z,98480.94
2023-03-26T19:09:30.304Z,98479.59
2023-03-26T19:12:15.838Z,98466.63
2023-03-26T19:15:14.978Z,98478.03
2023-03-26T19:17:56.779Z,98476.78
2023-03-26T19:20:30.803Z,98469.00
2023-03-26T19:23:00.095Z,98465.91
2023-03-26T19:25:49.385Z,98472.72
2023-03-26T19:28:58.471Z,98468.50
2023-03-26T19:31:33.894Z,98464.19
2023-03-26T19:34:05.961Z,98459.19
2023-03-26T19:36:35.606Z,98461.13
2023-03-26T19:39:21.618Z,98457.44
2023-03-26T19:41:57.341Z,98462.06
2023-03-26T19:44:31.463Z,98462.09
2023-03-26T19:47:07.256Z,98458.00
2023-03-26T19:50:16.407Z,98458.00
2023-03-26T19:52:46.182Z,98449.69
2023-03-26T19:55:28.152Z,98453.00
2023-03-26T19:57:57.533Z,98448.16
2023-03-26T20:00:26.278Z,98449.13
2023-03-26T20:02:55.666Z,98447.50
2023-03-26T20:05:27.780Z,98446.72
2023-03-26T20:08:01.858Z,98451.72
2023-03-26T20:10:30.799Z,98440.84
2023-03-26T20:12:59.572Z,98442.59
2023-03-26T20:15:32.451Z,98434.81
2023-03-26T20:18:01.763Z,98428.03
2023-03-26T20:20:31.491Z,98424.69
2023-03-26T20:23:00.532Z,98423.78
2023-03-26T20:25:33.856Z,98425.38
2023-03-26T20:28:03.392Z,98425.44
2023-03-26T20:33:12.540Z,98419.34
2023-03-26T20:35:42.521Z,98413.38
2023-03-26T20:38:11.408Z,98410.09
2023-03-26T20:40:41.152Z,98411.00
2023-03-26T20:43:15.080Z,98403.22
2023-03-26T20:45:44.563Z,98399.91
2023-03-26T20:48:13.532Z,98392.94
2023-03-26T20:50:50.701Z,98392.03
2023-03-26T20:53:21.222Z,98391.19
2023-03-26T20:55:51.811Z,98392.03
2023-03-26T20:58:31.384Z,98393.59
2023-03-26T21:01:02.750Z,98380.16
2023-03-26T21:03:31.975Z,98375.00
2023-03-26T21:06:05.770Z,98373.25
2023-03-26T21:08:35.394Z,98371.59
2023-03-26T21:11:26.377Z,98373.16
2023-03-26T21:14:09.215Z,98375.50
2023-03-26T21:16:38.779Z,98370.47
2023-03-26T21:19:07.682Z,98365.28
2023-03-26T21:22:21.654Z,98363.31
2023-03-26T21:25:02.704Z,98358.13
2023-03-26T21:28:01.919Z,98357.91
2023-03-26T21:30:31.379Z,98356.50
2023-03-26T21:33:00.784Z,98353.06
2023-03-26T21:35:30.426Z,98346.22
2023-03-26T21:37:59.810Z,98344.69
2023-03-26T21:40:29.315Z,98343.03
2023-03-26T21:42:59.680Z,98344.53
2023-03-26T21:45:29.290Z,98340.94
2023-03-26T21:47:58.586Z,98338.22
2023-03-26T21:50:28.102Z,98336.50
2023-03-26T21:52:57.530Z,98331.19
2023-03-26T21:55:26.853Z,98328.47
2023-03-26T21:58:17.713Z,98323.13
2023-03-26T22:01:20.497Z,98321.31
2023-03-26T22:04:12.223Z,98322.47
2023-03-26T22:07:12.618Z,98318.69
2023-03-26T22:09:42.174Z,98315.50
2023-03-26T22:12:11.463Z,98311.03
2023-03-26T22:14:40.466Z,98319.56
2023-03-26T22:17:09.385Z,98317.03
2023-03-26T22:19:38.322Z,98314.34
2023-03-26T22:22:07.015Z,98308.97
2023-03-26T22:24:35.960Z,98318.59
2023-03-26T22:27:05.088Z,98311.53
2023-03-26T22:29:34.436Z,98316.00
2023-03-26T22:32:04.560Z,98314.13
2023-03-26T22:34:35.879Z,98312.63
2023-03-26T22:37:06.516Z,98316.13
2023-03-26T22:39:35.437Z,98317.69
2023-03-26T22:42:04.666Z,98316.09
2023-03-26T22:44:33.847Z,98314.25
2023-03-26T22:47:02.598Z,98322.09
2023-03-26T22:49:32.292Z,98317.03
2023-03-26T22:52:01.104Z,98316.16
2023-03-26T22:54:29.792Z,98320.34
2023-03-26T22:56:58.686Z,98315.69
2023-03-26T22:59:27.400Z,98311.34
2023-03-26T23:01:57.009Z,98318.19
2023-03-26T23:04:31.533Z,98321.88
2023-03-26T23:07:01.530Z,98325.34
2023-03-26T23:09:30.604Z,98320.22
2023-03-26T23:12:00.771Z,98322.84
2023-03-26T23:14:29.889Z,98325.56
2023-03-26T23:16:59.197Z,98331.63
2023-03-26T23:19:27.897Z,98326.25
2023-03-26T23:21:57.604Z,98331.53
2023-03-26T23:24:31.134Z,98328.03
2023-03-26T23:27:00.169Z,98319.81
2023-03-26T23:29:30.980Z,98323.91
2023-03-26T23:32:00.727Z,98333.13
2023-03-26T23:34:29.396Z,98327.00
2023-03-26T23:36:59.000Z,98328.69
2023-03-26T23:39:29.638Z,98335.72
2023-03-26T23:41:58.543Z,98325.41
2023-03-26T23:44:30.298Z,98341.72
2023-03-26T23:47:01.420Z,98346.09
2023-03-26T23:49:30.622Z,98341.06
2023-03-26T23:51:59.346Z,98341.19
2023-03-26T23:54:28.442Z,98342.09
2023-03-26T23:56:58.774Z,98341.44
2023-03-26T23:59:27.777Z,98342.38
